Time;durP1;ratioP1;P1;durP2;ratioP2;P2;SDS_P1;SDS_P2;PMS_P1;PMS_P2;Temp;Humidity;BMP_temperature;BMP_pressure;BME280_temperature;BME280_humidity;BME280_pressure;Samples;Min_cycle;Max_cycle;Signal;HPM_P1;HPM_P2
2022/08/31 00:05:54;;;;;;;10.10;2.80;;;;;;;;;;4999755;28;20446;-67
2022/08/31 00:08:20;;;;;;;10.70;2.88;;;;;;;;;;5003567;28;20041;-67
2022/08/31 00:10:48;;;;;;;10.82;2.70;;;;;;;;;;4999493;28;21004;-67
2022/08/31 00:13:14;;;;;;;10.15;2.30;;;;;;;;;;5003091;28;20041;-68
2022/08/31 00:15:41;;;;;;;8.88;2.67;;;;;;;;;;5000339;28;20103;-67
2022/08/31 00:18:08;;;;;;;8.52;2.60;;;;;;;;;;5004662;28;20957;-68
2022/08/31 00:20:35;;;;;;;9.68;2.10;;;;;;;;;;5004391;28;20395;-67
2022/08/31 00:23:04;;;;;;;6.97;2.50;;;;;;;;;;5000261;28;20088;-67
2022/08/31 00:25:32;;;;;;;9.00;2.30;;;;;;;;;;5001576;28;20982;-67
2022/08/31 00:27:58;;;;;;;9.52;2.60;;;;;;;;;;4979141;28;20033;-67
2022/08/31 00:30:25;;;;;;;9.55;2.72;;;;;;;;;;5004372;28;20018;-68
2022/08/31 00:32:51;;;;;;;8.32;2.60;;;;;;;;;;4998145;28;20033;-67
2022/08/31 00:35:17;;;;;;;13.23;2.47;;;;;;;;;;5002333;28;20802;-68
2022/08/31 00:37:44;;;;;;;8.43;2.53;;;;;;;;;;4999157;28;20591;-68
2022/08/31 00:40:10;;;;;;;7.07;1.90;;;;;;;;;;4984342;28;20507;-68
2022/08/31 00:42:36;;;;;;;9.77;2.40;;;;;;;;;;5003375;28;20037;-68
2022/08/31 00:45:04;;;;;;;6.78;2.20;;;;;;;;;;4984058;28;20026;-68
2022/08/31 00:47:30;;;;;;;7.70;2.20;;;;;;;;;;5001327;28;20175;-69
2022/08/31 00:49:57;;;;;;;8.23;2.30;;;;;;;;;;4999090;28;20048;-68
2022/08/31 00:52:25;;;;;;;9.30;2.47;;;;;;;;;;5001667;28;20944;-68
2022/08/31 00:54:56;;;;;;;9.95;2.30;;;;;;;;;;4999021;28;20051;-67
2022/08/31 00:57:23;;;;;;;8.95;2.33;;;;;;;;;;5003737;28;20147;-68
2022/08/31 00:59:50;;;;;;;9.75;2.38;;;;;;;;;;4997114;28;20534;-68
2022/08/31 01:02:16;;;;;;;7.28;1.92;;;;;;;;;;5002942;28;20038;-69
2022/08/31 01:04:43;;;;;;;8.30;2.45;;;;;;;;;;4999921;28;20033;-68
2022/08/31 01:07:09;;;;;;;10.13;2.50;;;;;;;;;;5006673;28;20084;-69
2022/08/31 01:09:37;;;;;;;9.48;2.30;;;;;;;;;;4989299;28;20033;-68
2022/08/31 01:12:05;;;;;;;8.70;2.15;;;;;;;;;;5007253;28;20037;-67
2022/08/31 01:14:31;;;;;;;9.18;2.90;;;;;;;;;;5008053;28;20116;-68
2022/08/31 01:16:58;;;;;;;8.43;2.47;;;;;;;;;;5002957;28;20978;-70
2022/08/31 01:19:35;;;;;;;9.85;2.50;;;;;;;;;;5006819;28;20030;-68
2022/08/31 01:22:06;;;;;;;8.13;2.58;;;;;;;;;;4983600;28;20123;-68
2022/08/31 01:24:33;;;;;;;11.30;3.05;;;;;;;;;;5006212;28;20025;-67
2022/08/31 01:27:02;;;;;;;13.32;3.10;;;;;;;;;;5002007;28;20106;-68
2022/08/31 01:29:29;;;;;;;10.15;2.80;;;;;;;;;;5006113;28;20464;-67
2022/08/31 01:31:55;;;;;;;10.50;2.83;;;;;;;;;;4985657;28;20394;-67
2022/08/31 01:34:21;;;;;;;8.45;3.20;;;;;;;;;;5002641;28;20103;-67
2022/08/31 01:36:48;;;;;;;14.30;3.60;;;;;;;;;;4985227;28;20107;-69
2022/08/31 01:39:14;;;;;;;13.27;3.20;;;;;;;;;;5006269;28;20033;-68
2022/08/31 01:41:42;;;;;;;9.75;2.97;;;;;;;;;;4986061;28;20021;-68
2022/08/31 01:44:09;;;;;;;12.88;2.83;;;;;;;;;;5005195;28;20637;-68
2022/08/31 01:46:36;;;;;;;8.77;2.60;;;;;;;;;;5005159;28;20037;-67
2022/08/31 01:49:03;;;;;;;11.57;3.13;;;;;;;;;;5002852;28;20049;-68
2022/08/31 01:51:29;;;;;;;8.43;2.58;;;;;;;;;;5005364;28;20856;-68
2022/08/31 01:53:55;;;;;;;8.13;2.72;;;;;;;;;;4984979;28;20463;-68
2022/08/31 01:56:23;;;;;;;8.63;2.50;;;;;;;;;;5005919;28;20041;-69
2022/08/31 01:58:49;;;;;;;10.05;2.65;;;;;;;;;;5001974;28;20542;-69
2022/08/31 02:01:16;;;;;;;10.30;2.67;;;;;;;;;;5002509;28;20041;-68
2022/08/31 02:03:42;;;;;;;10.98;2.75;;;;;;;;;;4983698;28;20029;-71
2022/08/31 02:06:09;;;;;;;12.02;2.60;;;;;;;;;;5005230;28;21219;-67
2022/08/31 02:08:36;;;;;;;10.43;2.60;;;;;;;;;;5004156;28;20091;-66
2022/08/31 02:11:03;;;;;;;9.77;2.47;;;;;;;;;;5004493;28;20038;-68
2022/08/31 02:13:29;;;;;;;7.90;2.50;;;;;;;;;;5003060;28;20033;-69
2022/08/31 02:15:55;;;;;;;10.27;2.58;;;;;;;;;;5000968;28;20044;-68
2022/08/31 02:18:21;;;;;;;11.77;2.55;;;;;;;;;;5003834;28;20384;-67
2022/08/31 02:20:47;;;;;;;7.78;2.38;;;;;;;;;;5001773;28;20068;-69
2022/08/31 02:23:13;;;;;;;6.57;1.95;;;;;;;;;;5006141;28;20671;-68
2022/08/31 02:25:40;;;;;;;11.15;2.60;;;;;;;;;;4999001;28;20067;-69
2022/08/31 02:28:06;;;;;;;8.07;2.45;;;;;;;;;;5005470;28;20327;-67
2022/08/31 02:30:32;;;;;;;8.52;2.50;;;;;;;;;;5004804;28;20551;-68
2022/08/31 02:32:58;;;;;;;9.82;2.50;;;;;;;;;;4998443;28;20843;-68
2022/08/31 02:35:24;;;;;;;8.02;2.35;;;;;;;;;;5004835;28;20042;-68
2022/08/31 02:37:50;;;;;;;8.85;2.50;;;;;;;;;;5000754;28;20113;-69
2022/08/31 02:40:16;;;;;;;10.45;2.40;;;;;;;;;;5004257;28;20039;-67
2022/08/31 02:42:42;;;;;;;10.90;3.13;;;;;;;;;;4982498;28;20032;-68
2022/08/31 02:45:09;;;;;;;9.77;2.63;;;;;;;;;;5002581;28;20032;-67
2022/08/31 02:47:35;;;;;;;9.95;2.78;;;;;;;;;;5003593;28;20164;-68
2022/08/31 02:50:02;;;;;;;9.88;2.65;;;;;;;;;;5000716;28;20041;-69
2022/08/31 02:52:28;;;;;;;8.80;2.70;;;;;;;;;;4985113;28;20033;-67
2022/08/31 02:54:54;;;;;;;11.40;2.83;;;;;;;;;;5001985;28;20394;-67
2022/08/31 02:57:20;;;;;;;8.68;2.45;;;;;;;;;;5003177;28;20034;-68
2022/08/31 02:59:46;;;;;;;7.90;2.30;;;;;;;;;;5001528;28;20041;-68
2022/08/31 03:02:12;;;;;;;8.63;2.30;;;;;;;;;;5004778;28;20470;-67
2022/08/31 03:04:39;;;;;;;10.38;2.65;;;;;;;;;;4999927;28;20021;-68
2022/08/31 03:07:05;;;;;;;10.52;2.20;;;;;;;;;;5002148;28;20387;-67
2022/08/31 03:09:31;;;;;;;9.90;2.60;;;;;;;;;;4993935;28;20472;-68
2022/08/31 03:11:58;;;;;;;11.35;2.40;;;;;;;;;;4984304;28;20037;-67
2022/08/31 03:14:24;;;;;;;12.63;2.70;;;;;;;;;;5003892;28;20056;-67
2022/08/31 03:16:50;;;;;;;9.90;2.65;;;;;;;;;;5000038;28;20547;-68
2022/08/31 03:19:16;;;;;;;9.57;2.85;;;;;;;;;;5002212;28;20041;-68
2022/08/31 03:21:44;;;;;;;11.15;2.92;;;;;;;;;;4999539;28;20076;-67
2022/08/31 03:24:10;;;;;;;8.88;2.47;;;;;;;;;;4987341;28;20029;-69
2022/08/31 03:26:36;;;;;;;10.18;2.53;;;;;;;;;;5003845;28;20037;-68
2022/08/31 03:29:03;;;;;;;12.45;2.90;;;;;;;;;;4977964;28;20021;-67
2022/08/31 03:31:30;;;;;;;13.82;2.50;;;;;;;;;;5004667;28;20060;-68
2022/08/31 03:33:57;;;;;;;11.43;2.58;;;;;;;;;;5000581;28;20044;-67
2022/08/31 03:36:24;;;;;;;11.75;2.72;;;;;;;;;;5003703;28;20080;-68
2022/08/31 03:38:50;;;;;;;14.48;2.90;;;;;;;;;;5000930;28;20033;-68
2022/08/31 03:41:19;;;;;;;9.75;2.75;;;;;;;;;;5001107;28;20052;-68
2022/08/31 03:43:46;;;;;;;11.77;2.88;;;;;;;;;;4998729;28;20032;-67
2022/08/31 03:46:12;;;;;;;11.05;2.90;;;;;;;;;;5002051;28;20026;-68
2022/08/31 03:48:38;;;;;;;10.45;2.90;;;;;;;;;;5001626;28;20107;-69
2022/08/31 03:51:04;;;;;;;13.63;3.17;;;;;;;;;;5003242;28;20040;-68
2022/08/31 03:53:30;;;;;;;15.98;3.30;;;;;;;;;;5003609;28;20112;-68
2022/08/31 03:56:00;;;;;;;13.48;3.40;;;;;;;;;;4998207;28;20084;-67
2022/08/31 03:58:28;;;;;;;17.55;3.22;;;;;;;;;;5004001;28;20334;-69
2022/08/31 04:00:54;;;;;;;12.93;3.20;;;;;;;;;;4999249;28;20524;-68
2022/08/31 04:03:20;;;;;;;11.73;3.13;;;;;;;;;;5006475;28;20029;-66
2022/08/31 04:05:46;;;;;;;11.27;2.85;;;;;;;;;;4988867;28;20030;-68
2022/08/31 04:08:13;;;;;;;10.52;3.00;;;;;;;;;;4983375;28;20076;-68
2022/08/31 04:10:40;;;;;;;9.07;2.90;;;;;;;;;;4995950;28;20037;-68
2022/08/31 04:13:06;;;;;;;9.40;2.50;;;;;;;;;;4979350;28;20030;-67
2022/08/31 04:15:32;;;;;;;12.43;2.92;;;;;;;;;;5002663;28;20025;-68
2022/08/31 04:17:58;;;;;;;14.98;3.13;;;;;;;;;;4997439;28;20057;-67
2022/08/31 04:20:25;;;;;;;13.70;3.75;;;;;;;;;;5003169;28;20021;-67
2022/08/31 04:22:51;;;;;;;17.77;3.55;;;;;;;;;;4980272;28;20044;-69
2022/08/31 04:25:17;;;;;;;17.38;3.55;;;;;;;;;;5003669;28;20041;-69
2022/08/31 04:27:43;;;;;;;20.08;4.50;;;;;;;;;;5001028;28;20533;-68
2022/08/31 04:30:10;;;;;;;20.73;4.63;;;;;;;;;;5002812;28;20055;-69
2022/08/31 04:32:36;;;;;;;26.30;4.88;;;;;;;;;;5003328;28;20079;-69
2022/08/31 04:35:02;;;;;;;28.13;4.85;;;;;;;;;;5000438;28;20142;-68
2022/08/31 04:37:29;;;;;;;28.58;5.05;;;;;;;;;;5003115;28;20924;-69
2022/08/31 04:39:56;;;;;;;24.83;5.28;;;;;;;;;;5005016;28;20480;-68
2022/08/31 04:42:23;;;;;;;21.25;4.60;;;;;;;;;;5006522;28;20402;-68
2022/08/31 04:44:50;;;;;;;22.00;5.05;;;;;;;;;;4985177;28;20030;-69
2022/08/31 04:47:16;;;;;;;23.63;5.13;;;;;;;;;;4990926;28;20427;-69
2022/08/31 04:49:42;;;;;;;23.42;4.72;;;;;;;;;;5001075;28;20542;-69
2022/08/31 04:52:09;;;;;;;22.83;4.72;;;;;;;;;;5007846;28;20456;-70
2022/08/31 04:54:35;;;;;;;25.60;5.10;;;;;;;;;;5008189;28;20029;-69
2022/08/31 04:57:01;;;;;;;22.20;4.78;;;;;;;;;;5003166;28;20041;-69
2022/08/31 04:59:27;;;;;;;25.50;5.40;;;;;;;;;;4989157;28;20538;-68
2022/08/31 05:01:54;;;;;;;20.38;4.63;;;;;;;;;;5003907;28;20037;-68
2022/08/31 05:04:23;;;;;;;19.05;4.10;;;;;;;;;;5004892;28;20063;-69
2022/08/31 05:06:49;;;;;;;18.80;4.70;;;;;;;;;;5002143;28;20030;-69
2022/08/31 05:09:18;;;;;;;20.25;4.25;;;;;;;;;;5005095;28;20046;-68
2022/08/31 05:11:44;;;;;;;19.65;3.92;;;;;;;;;;5003401;28;20184;-67
2022/08/31 05:14:11;;;;;;;22.55;4.60;;;;;;;;;;4993999;28;20040;-67
2022/08/31 05:16:38;;;;;;;18.23;3.95;;;;;;;;;;5004041;28;20030;-68
2022/08/31 05:19:05;;;;;;;17.20;3.95;;;;;;;;;;5008576;28;20035;-68
2022/08/31 05:21:33;;;;;;;22.17;4.22;;;;;;;;;;5009192;28;20092;-68
2022/08/31 05:24:01;;;;;;;20.52;4.55;;;;;;;;;;5002059;28;20025;-68
2022/08/31 05:26:31;;;;;;;24.10;4.82;;;;;;;;;;5002924;28;20413;-67
2022/08/31 05:28:59;;;;;;;29.13;5.25;;;;;;;;;;4988807;28;25290;-68
2022/08/31 05:31:27;;;;;;;23.95;5.05;;;;;;;;;;5001762;28;20156;-70
2022/08/31 05:33:54;;;;;;;19.95;4.57;;;;;;;;;;4997465;28;20021;-68
2022/08/31 05:36:20;;;;;;;20.15;5.03;;;;;;;;;;4983913;28;20414;-68
2022/08/31 05:38:46;;;;;;;21.95;4.75;;;;;;;;;;4997737;28;20033;-69
2022/08/31 05:41:13;;;;;;;21.02;4.85;;;;;;;;;;5003210;28;20033;-68
2022/08/31 05:43:40;;;;;;;22.10;4.63;;;;;;;;;;4988863;28;20032;-67
2022/08/31 05:46:09;;;;;;;21.42;4.60;;;;;;;;;;5001873;28;20378;-69
2022/08/31 05:48:36;;;;;;;19.40;4.43;;;;;;;;;;5001870;28;20400;-68
2022/08/31 05:51:10;;;;;;;17.70;4.65;;;;;;;;;;5000448;28;20506;-69
2022/08/31 05:53:36;;;;;;;19.65;4.70;;;;;;;;;;4982517;28;20087;-68
2022/08/31 05:56:05;;;;;;;19.60;4.30;;;;;;;;;;5002656;28;20113;-69
2022/08/31 05:58:32;;;;;;;21.45;4.90;;;;;;;;;;4988515;28;20033;-68
2022/08/31 06:00:58;;;;;;;24.80;5.13;;;;;;;;;;4999751;28;20033;-68
2022/08/31 06:03:24;;;;;;;27.85;4.63;;;;;;;;;;5005765;28;20017;-68
2022/08/31 06:05:51;;;;;;;29.55;5.63;;;;;;;;;;5001223;28;20107;-67
2022/08/31 06:08:19;;;;;;;25.98;4.95;;;;;;;;;;4988064;28;20598;-68
2022/08/31 06:10:45;;;;;;;25.02;5.00;;;;;;;;;;5000820;28;20545;-68
2022/08/31 06:13:14;;;;;;;24.15;5.00;;;;;;;;;;5001938;28;20384;-68
2022/08/31 06:15:41;;;;;;;17.98;4.40;;;;;;;;;;5001845;28;20562;-68
2022/08/31 06:18:07;;;;;;;20.00;4.82;;;;;;;;;;5004686;28;20108;-68
2022/08/31 06:20:36;;;;;;;21.30;4.80;;;;;;;;;;5006009;28;20053;-68
2022/08/31 06:23:04;;;;;;;18.73;4.57;;;;;;;;;;4983721;28;20037;-67
2022/08/31 06:25:31;;;;;;;23.42;4.43;;;;;;;;;;5004262;28;20030;-67
2022/08/31 06:27:58;;;;;;;24.55;4.75;;;;;;;;;;5000690;28;22888;-68
2022/08/31 06:30:26;;;;;;;19.75;4.50;;;;;;;;;;5003787;28;20033;-68
2022/08/31 06:32:52;;;;;;;22.23;4.55;;;;;;;;;;5000286;28;20013;-68
2022/08/31 06:35:18;;;;;;;18.42;4.15;;;;;;;;;;5004322;28;20045;-68
2022/08/31 06:37:44;;;;;;;23.50;4.65;;;;;;;;;;5004069;28;20479;-68
2022/08/31 06:40:11;;;;;;;22.98;4.65;;;;;;;;;;5006252;28;20656;-69
2022/08/31 06:42:37;;;;;;;22.58;4.88;;;;;;;;;;5003345;28;20137;-70
2022/08/31 06:45:06;;;;;;;17.15;3.58;;;;;;;;;;4980141;28;20467;-69
2022/08/31 06:47:33;;;;;;;27.52;5.20;;;;;;;;;;5003057;28;20092;-68
2022/08/31 06:50:00;;;;;;;31.40;5.80;;;;;;;;;;5000152;28;20165;-68
2022/08/31 06:52:26;;;;;;;19.77;4.30;;;;;;;;;;5003281;28;20041;-69
2022/08/31 06:54:52;;;;;;;27.80;4.78;;;;;;;;;;4999938;28;20041;-69
2022/08/31 06:57:18;;;;;;;23.05;4.53;;;;;;;;;;5002706;28;20498;-69
2022/08/31 06:59:44;;;;;;;19.80;4.75;;;;;;;;;;5001335;28;20438;-68
2022/08/31 07:02:11;;;;;;;18.70;4.32;;;;;;;;;;5004665;28;20029;-69
2022/08/31 07:04:38;;;;;;;21.80;4.30;;;;;;;;;;4988149;28;20036;-68
2022/08/31 07:07:05;;;;;;;20.52;4.47;;;;;;;;;;5005115;28;20570;-69
2022/08/31 07:09:32;;;;;;;22.98;4.85;;;;;;;;;;5005629;28;20048;-67
2022/08/31 07:11:58;;;;;;;19.65;5.07;;;;;;;;;;5002332;28;20471;-69
2022/08/31 07:14:25;;;;;;;21.42;4.57;;;;;;;;;;5005660;28;20041;-68
2022/08/31 07:16:53;;;;;;;24.27;5.30;;;;;;;;;;5003295;28;20029;-69
2022/08/31 07:19:19;;;;;;;21.50;5.18;;;;;;;;;;5006883;28;20078;-67
2022/08/31 07:21:46;;;;;;;21.65;4.97;;;;;;;;;;5000973;28;20035;-68
2022/08/31 07:24:14;;;;;;;22.92;5.13;;;;;;;;;;5005964;28;20022;-68
2022/08/31 07:26:41;;;;;;;24.17;5.03;;;;;;;;;;5000919;28;20025;-69
2022/08/31 07:29:09;;;;;;;25.85;5.78;;;;;;;;;;5004124;28;20025;-67
2022/08/31 07:31:43;;;;;;;25.58;5.45;;;;;;;;;;5003898;28;20093;-67
2022/08/31 07:34:09;;;;;;;26.10;5.20;;;;;;;;;;5003597;28;20029;-70
2022/08/31 07:42:07;;;;;;;24.50;4.88;;;;;;;;;;5005528;28;20040;-68
2022/08/31 07:42:10;;;;;;;20.48;5.00;;;;;;;;;;5004629;28;20148;-70
2022/08/31 07:44:37;;;;;;;28.70;5.30;;;;;;;;;;5008509;28;20049;-68
2022/08/31 07:47:04;;;;;;;23.15;4.68;;;;;;;;;;4984731;28;20063;-69
2022/08/31 07:49:31;;;;;;;26.23;5.32;;;;;;;;;;5007299;28;20025;-69
2022/08/31 07:51:58;;;;;;;20.67;4.75;;;;;;;;;;5003647;28;20034;-70
2022/08/31 07:54:28;;;;;;;22.95;4.55;;;;;;;;;;4985586;28;20456;-68
2022/08/31 07:57:03;;;;;;;21.83;4.57;;;;;;;;;;4998086;28;20033;-68
2022/08/31 07:59:31;;;;;;;19.75;4.82;;;;;;;;;;5003785;28;20033;-69
2022/08/31 08:02:00;;;;;;;18.02;4.10;;;;;;;;;;5000659;28;25283;-68
2022/08/31 08:04:26;;;;;;;22.42;4.75;;;;;;;;;;4984976;28;20456;-68
2022/08/31 08:06:54;;;;;;;21.90;4.85;;;;;;;;;;5000066;28;20037;-69
2022/08/31 08:09:21;;;;;;;16.92;4.50;;;;;;;;;;5004061;28;20040;-68
2022/08/31 08:11:53;;;;;;;20.95;4.95;;;;;;;;;;4987016;28;20128;-68
2022/08/31 08:14:20;;;;;;;20.50;4.25;;;;;;;;;;5003196;28;20040;-69
2022/08/31 08:16:46;;;;;;;20.35;4.40;;;;;;;;;;5001747;28;20042;-70
2022/08/31 08:19:12;;;;;;;23.52;4.68;;;;;;;;;;5003532;28;20037;-69
2022/08/31 08:21:38;;;;;;;19.55;4.57;;;;;;;;;;5000786;28;20029;-69
2022/08/31 08:24:05;;;;;;;23.27;4.28;;;;;;;;;;5004617;28;20017;-70
2022/08/31 08:26:31;;;;;;;22.77;4.65;;;;;;;;;;5004430;28;20547;-68
2022/08/31 08:28:57;;;;;;;21.45;4.60;;;;;;;;;;5002021;28;22979;-69
2022/08/31 08:31:26;;;;;;;19.45;4.13;;;;;;;;;;4988696;28;20021;-69
2022/08/31 08:33:53;;;;;;;24.48;4.60;;;;;;;;;;4997211;28;20037;-69
2022/08/31 08:36:19;;;;;;;18.38;3.92;;;;;;;;;;4987012;28;20053;-69
2022/08/31 08:38:46;;;;;;;26.98;4.82;;;;;;;;;;4981594;28;20053;-69
2022/08/31 08:41:18;;;;;;;21.85;4.88;;;;;;;;;;5003320;28;20029;-70
2022/08/31 08:43:46;;;;;;;23.77;5.05;;;;;;;;;;4997182;28;20103;-71
2022/08/31 08:46:13;;;;;;;22.05;4.57;;;;;;;;;;5003061;28;20057;-68
2022/08/31 08:48:40;;;;;;;21.60;4.45;;;;;;;;;;4999273;28;20044;-70
2022/08/31 08:51:12;;;;;;;17.80;4.30;;;;;;;;;;5005280;28;20017;-69
2022/08/31 08:53:40;;;;;;;21.13;4.70;;;;;;;;;;5002221;28;20045;-69
2022/08/31 08:56:07;;;;;;;20.10;4.55;;;;;;;;;;5000920;28;20049;-69
2022/08/31 08:58:34;;;;;;;21.77;4.70;;;;;;;;;;5004509;28;20847;-69
2022/08/31 09:01:01;;;;;;;17.92;4.30;;;;;;;;;;4998881;28;20343;-68
2022/08/31 09:03:46;;;;;;;22.38;4.15;;;;;;;;;;5003770;28;20029;-69
2022/08/31 09:06:27;;;;;;;20.65;4.43;;;;;;;;;;4985874;28;20669;-69
2022/08/31 09:09:07;;;;;;;22.65;4.18;;;;;;;;;;4987765;28;20100;-69
2022/08/31 09:11:40;;;;;;;19.52;4.57;;;;;;;;;;5003484;28;20242;-69
2022/08/31 09:14:08;;;;;;;22.75;4.43;;;;;;;;;;5002997;28;20037;-68
2022/08/31 09:16:46;;;;;;;21.13;3.88;;;;;;;;;;5001552;28;20025;-67
2022/08/31 09:19:17;;;;;;;27.20;4.65;;;;;;;;;;4999456;28;20037;-69
2022/08/31 09:21:53;;;;;;;19.70;4.30;;;;;;;;;;5001472;28;20076;-68
2022/08/31 09:24:21;;;;;;;19.92;3.90;;;;;;;;;;5004119;28;20024;-69
2022/08/31 09:26:53;;;;;;;18.88;4.00;;;;;;;;;;5003468;28;20017;-69
2022/08/31 09:29:27;;;;;;;15.60;3.60;;;;;;;;;;5009312;28;20080;-68
2022/08/31 09:32:06;;;;;;;20.77;4.43;;;;;;;;;;5007594;28;20069;-70
2022/08/31 09:34:37;;;;;;;19.00;4.03;;;;;;;;;;4993328;28;20045;-68
2022/08/31 09:37:19;;;;;;;19.35;3.88;;;;;;;;;;5007353;28;20033;-70
2022/08/31 09:39:47;;;;;;;18.33;3.72;;;;;;;;;;5003739;28;20041;-69
2022/08/31 09:42:17;;;;;;;18.35;3.70;;;;;;;;;;4989373;28;20018;-68
2022/08/31 09:44:45;;;;;;;12.70;3.10;;;;;;;;;;5001464;28;20033;-69
2022/08/31 09:47:41;;;;;;;15.65;3.22;;;;;;;;;;5004250;28;20025;-69
2022/08/31 09:50:09;;;;;;;22.33;4.30;;;;;;;;;;4988619;28;20034;-69
2022/08/31 09:55:24;;;;;;;15.82;3.63;;;;;;;;;;5005799;28;20048;-69
2022/08/31 09:57:55;;;;;;;19.10;3.72;;;;;;;;;;5003922;28;20966;-69
2022/08/31 10:00:31;;;;;;;19.20;3.30;;;;;;;;;;5006705;28;20033;-68
2022/08/31 10:03:08;;;;;;;16.95;3.70;;;;;;;;;;5002058;28;20354;-69
2022/08/31 10:05:43;;;;;;;19.27;3.20;;;;;;;;;;5005745;28;20561;-68
2022/08/31 10:08:19;;;;;;;17.75;3.17;;;;;;;;;;5005910;28;20467;-69
2022/08/31 10:10:46;;;;;;;17.50;3.03;;;;;;;;;;5003743;28;20025;-69
2022/08/31 10:13:12;;;;;;;17.83;3.10;;;;;;;;;;5005752;28;20025;-68
2022/08/31 10:15:53;;;;;;;16.23;3.30;;;;;;;;;;5001282;28;20029;-67
2022/08/31 10:18:26;;;;;;;16.02;3.10;;;;;;;;;;5005401;28;20022;-68
2022/08/31 10:21:04;;;;;;;15.25;3.22;;;;;;;;;;5001978;28;20387;-69
2022/08/31 10:23:40;;;;;;;18.20;3.40;;;;;;;;;;4985260;28;20128;-69
2022/08/31 10:26:06;;;;;;;;;;;;;;;;;;5005034;28;20435;-68
2022/08/31 10:28:39;;;;;;;17.55;3.20;;;;;;;;;;5006063;28;19940;-68
2022/08/31 10:31:08;;;;;;;14.77;3.28;;;;;;;;;;5005070;28;20035;-68
2022/08/31 10:36:35;;;;;;;25.55;4.25;;;;;;;;;;5004572;28;20053;-68
2022/08/31 10:39:15;;;;;;;19.75;3.72;;;;;;;;;;5001669;28;20037;-69
2022/08/31 10:41:47;;;;;;;20.77;3.45;;;;;;;;;;5002950;28;20025;-69
2022/08/31 10:44:23;;;;;;;21.00;3.40;;;;;;;;;;4988953;28;20562;-68
2022/08/31 10:46:57;;;;;;;20.48;3.80;;;;;;;;;;5003809;28;20464;-68
2022/08/31 10:49:23;;;;;;;16.48;3.10;;;;;;;;;;4989027;28;20468;-68
2022/08/31 10:51:58;;;;;;;19.17;3.55;;;;;;;;;;4997302;28;20033;-68
2022/08/31 10:54:38;;;;;;;15.60;3.17;;;;;;;;;;5005167;28;20037;-70
2022/08/31 10:57:31;;;;;;;18.25;3.10;;;;;;;;;;5005541;28;20597;-67
2022/08/31 11:00:00;;;;;;;21.45;3.55;;;;;;;;;;4998962;28;20347;-69
2022/08/31 11:02:51;;;;;;;21.73;3.80;;;;;;;;;;4982049;28;20745;-68
2022/08/31 11:05:36;;;;;;;20.40;4.10;;;;;;;;;;4984368;28;20018;-67
2022/08/31 11:08:14;;;;;;;26.77;4.65;;;;;;;;;;4999726;28;20116;-69
2022/08/31 11:10:41;;;;;;;25.58;4.22;;;;;;;;;;4999771;28;20029;-67
2022/08/31 11:13:16;;;;;;;21.73;4.07;;;;;;;;;;5003458;28;20353;-68
2022/08/31 11:15:48;;;;;;;23.45;3.92;;;;;;;;;;4999606;28;20434;-68
2022/08/31 11:18:39;;;;;;;22.98;3.85;;;;;;;;;;5005513;28;20030;-69
2022/08/31 11:21:10;;;;;;;20.75;3.83;;;;;;;;;;5005781;28;20033;-68
2022/08/31 11:23:43;;;;;;;22.88;4.05;;;;;;;;;;5005554;28;20122;-69
2022/08/31 11:26:09;;;;;;;21.13;4.20;;;;;;;;;;5005566;28;20029;-68
2022/08/31 11:28:38;;;;;;;24.75;4.30;;;;;;;;;;5002711;28;20030;-68
2022/08/31 11:31:22;;;;;;;21.00;3.80;;;;;;;;;;5004088;28;20533;-69
2022/08/31 11:33:49;;;;;;;19.52;4.15;;;;;;;;;;5000816;28;20087;-68
2022/08/31 11:36:36;;;;;;;21.80;4.25;;;;;;;;;;4967330;28;20056;-68
2022/08/31 11:39:02;;;;;;;18.17;4.50;;;;;;;;;;4965934;28;20674;-68
2022/08/31 11:41:45;;;;;;;19.40;3.92;;;;;;;;;;4968902;28;20037;-69
2022/08/31 11:44:32;;;;;;;19.23;3.58;;;;;;;;;;4986173;28;20026;-68
2022/08/31 11:47:06;;;;;;;15.93;3.50;;;;;;;;;;4968192;28;21242;-68
2022/08/31 11:49:48;;;;;;;19.35;3.92;;;;;;;;;;4984137;28;20078;-68
2022/08/31 11:52:23;;;;;;;17.02;3.65;;;;;;;;;;4964275;28;20104;-68
2022/08/31 11:54:49;;;;;;;19.35;3.53;;;;;;;;;;4980753;28;20044;-68
2022/08/31 11:57:20;;;;;;;22.65;4.03;;;;;;;;;;4985336;28;20079;-69
2022/08/31 11:59:47;;;;;;;17.95;3.75;;;;;;;;;;4980409;28;20546;-69
2022/08/31 12:02:20;;;;;;;23.70;4.18;;;;;;;;;;4968481;28;20377;-69
2022/08/31 12:04:52;;;;;;;20.55;4.00;;;;;;;;;;4981094;28;20032;-68
2022/08/31 12:07:27;;;;;;;17.88;3.55;;;;;;;;;;4985219;28;20113;-68
2022/08/31 12:09:59;;;;;;;18.97;3.70;;;;;;;;;;4980262;28;20084;-69
2022/08/31 12:12:31;;;;;;;18.92;3.47;;;;;;;;;;4983450;28;20271;-67
2022/08/31 12:14:57;;;;;;;19.13;3.80;;;;;;;;;;4981084;28;20638;-69
2022/08/31 12:17:41;;;;;;;18.02;3.60;;;;;;;;;;4969261;28;20605;-70
2022/08/31 12:20:13;;;;;;;16.10;2.72;;;;;;;;;;4979222;28;20524;-70
2022/08/31 12:25:40;;;;;;;22.48;4.05;;;;;;;;;;4983240;28;20533;-68
2022/08/31 12:28:22;;;;;;;20.58;3.85;;;;;;;;;;4984811;28;20022;-69
2022/08/31 12:30:53;;;;;;;22.05;3.47;;;;;;;;;;4978649;28;20026;-69
2022/08/31 12:33:22;;;;;;;21.23;4.15;;;;;;;;;;4965395;28;20447;-70
2022/08/31 12:35:52;;;;;;;21.90;4.05;;;;;;;;;;4993930;28;20052;-68
2022/08/31 12:38:19;;;;;;;19.02;3.97;;;;;;;;;;5003783;28;20482;-67
2022/08/31 12:40:55;;;;;;;20.38;4.05;;;;;;;;;;4988155;28;20033;-67
2022/08/31 12:43:27;;;;;;;22.05;4.18;;;;;;;;;;4999785;28;20018;-68
2022/08/31 12:46:03;;;;;;;19.25;3.88;;;;;;;;;;4999421;28;20037;-71
2022/08/31 12:48:29;;;;;;;;;;;;;;;;;;5004621;28;20073;-69
2022/08/31 12:51:03;;;;;;;20.90;3.38;;;;;;;;;;4999662;28;20426;-68
2022/08/31 12:53:51;;;;;;;24.83;5.00;;;;;;;;;;5003742;28;20068;-68
2022/08/31 12:56:17;;;;;;;24.90;4.50;;;;;;;;;;4985693;28;20029;-69
2022/08/31 12:58:43;;;;;;;23.73;5.22;;;;;;;;;;4983631;28;20045;-68
2022/08/31 13:01:13;;;;;;;24.40;5.05;;;;;;;;;;5008555;28;20025;-68
2022/08/31 13:03:45;;;;;;;21.95;4.72;;;;;;;;;;5004072;28;20033;-67
2022/08/31 13:06:13;;;;;;;28.38;5.35;;;;;;;;;;5003005;28;20034;-68
2022/08/31 13:08:41;;;;;;;27.80;5.53;;;;;;;;;;5004697;28;20033;-68
2022/08/31 13:11:15;;;;;;;28.05;5.32;;;;;;;;;;5007916;28;20034;-70
2022/08/31 13:13:41;;;;;;;25.23;5.47;;;;;;;;;;4984999;28;20500;-67
2022/08/31 13:16:08;;;;;;;25.48;5.53;;;;;;;;;;5007476;28;20025;-68
2022/08/31 13:18:35;;;;;;;23.35;5.07;;;;;;;;;;5007796;28;20456;-68
2022/08/31 13:21:05;;;;;;;25.55;5.50;;;;;;;;;;4986550;28;20025;-69
2022/08/31 13:23:37;;;;;;;24.90;4.85;;;;;;;;;;5008227;28;20037;-68
2022/08/31 13:26:18;;;;;;;27.95;5.20;;;;;;;;;;5006817;28;20438;-67
2022/08/31 13:28:49;;;;;;;26.67;5.65;;;;;;;;;;5004280;28;20463;-68
2022/08/31 13:31:18;;;;;;;31.05;5.22;;;;;;;;;;5007615;28;20041;-69
2022/08/31 13:33:46;;;;;;;32.15;5.43;;;;;;;;;;4997221;28;20039;-67
2022/08/31 13:36:15;;;;;;;26.13;4.93;;;;;;;;;;4985927;28;20054;-67
2022/08/31 13:38:52;;;;;;;21.70;5.00;;;;;;;;;;4998931;28;20098;-68
2022/08/31 13:41:26;;;;;;;22.95;5.40;;;;;;;;;;5002740;28;20456;-68
2022/08/31 13:44:04;;;;;;;22.50;5.07;;;;;;;;;;4999245;28;20439;-67
2022/08/31 13:46:38;;;;;;;23.48;4.68;;;;;;;;;;5002307;28;20054;-67
2022/08/31 13:49:09;;;;;;;28.05;5.07;;;;;;;;;;4998432;28;20140;-67
2022/08/31 13:51:39;;;;;;;26.80;5.40;;;;;;;;;;5000142;28;20400;-67
2022/08/31 13:54:13;;;;;;;28.80;5.60;;;;;;;;;;4995921;28;20025;-67
2022/08/31 13:56:53;;;;;;;31.23;5.57;;;;;;;;;;4997756;28;20032;-67
2022/08/31 13:59:22;;;;;;;25.67;5.20;;;;;;;;;;4996591;28;20502;-67
2022/08/31 14:01:52;;;;;;;25.70;5.20;;;;;;;;;;4976512;28;20247;-68
2022/08/31 14:04:42;;;;;;;28.35;5.50;;;;;;;;;;4998783;28;20029;-70
2022/08/31 14:07:18;;;;;;;26.65;4.90;;;;;;;;;;4996666;28;20037;-68
2022/08/31 14:09:45;;;;;;;23.70;5.05;;;;;;;;;;4997397;28;20048;-65
2022/08/31 14:12:30;;;;;;;24.13;5.30;;;;;;;;;;5000752;28;20403;-68
2022/08/31 14:14:58;;;;;;;28.75;5.72;;;;;;;;;;4999558;28;20121;-69
2022/08/31 14:17:25;;;;;;;27.63;5.35;;;;;;;;;;4986384;28;20127;-69
2022/08/31 14:19:51;;;;;;;27.67;5.43;;;;;;;;;;4997235;28;20124;-67
2022/08/31 14:22:34;;;;;;;24.83;5.30;;;;;;;;;;5004895;28;20026;-68
2022/08/31 14:25:01;;;;;;;26.92;5.75;;;;;;;;;;4981006;28;20090;-67
2022/08/31 14:27:28;;;;;;;23.35;5.70;;;;;;;;;;5001334;28;20025;-68
2022/08/31 14:29:54;;;;;;;31.08;5.60;;;;;;;;;;5001127;28;20526;-68
2022/08/31 14:32:21;;;;;;;27.02;5.63;;;;;;;;;;5002764;28;20033;-69
2022/08/31 14:34:48;;;;;;;25.67;5.53;;;;;;;;;;4998864;28;20495;-70
2022/08/31 14:37:18;;;;;;;27.08;5.35;;;;;;;;;;5002122;28;20045;-68
2022/08/31 14:39:46;;;;;;;27.05;5.40;;;;;;;;;;4999350;28;20029;-68
2022/08/31 14:42:20;;;;;;;28.77;5.85;;;;;;;;;;5003080;28;20021;-67
2022/08/31 14:44:55;;;;;;;28.67;6.53;;;;;;;;;;5000590;28;20053;-68
2022/08/31 14:47:23;;;;;;;28.02;5.68;;;;;;;;;;5003706;28;20490;-68
2022/08/31 14:49:49;;;;;;;27.10;5.40;;;;;;;;;;5001544;28;20649;-68
2022/08/31 14:52:16;;;;;;;27.63;5.60;;;;;;;;;;5005295;28;20048;-68
2022/08/31 14:54:42;;;;;;;25.90;5.55;;;;;;;;;;4998078;28;21065;-70
2022/08/31 14:57:24;;;;;;;25.60;5.40;;;;;;;;;;5004378;28;20330;-68
2022/08/31 14:59:51;;;;;;;27.23;5.47;;;;;;;;;;5000579;28;20056;-69
2022/08/31 15:02:19;;;;;;;27.08;5.68;;;;;;;;;;5003305;28;20132;-69